Port Huron, MI (48060)

2:24 AM EST on December 10, 2016 (GMT -0500)
Church and 17th Ave | | Change Station

Elev 604 ft 43.00 °N, 82.44 °W | Updated 7 seconds ago

Overcast
Overcast
24.3 °F
Feels Like 18 °F
N
5.3
Wind Variable Wind from WNW
Gusts 7.3 mph

Today
High -- | Low -- °F
--% Chance of Precip.
Yesterday
High -- | Low -- °F
Precip. -- in
Pressure 30.37 in
Visibility 10.0 miles
Clouds Overcast 6000 ft
Windchill 18 °F
Dew Point 17 °F
Humidity 72%
Rainfall 0.00 in
Snow Depth Not available.
7:50 AM 4:55 PM
Waxing Gibbous, 81% visible
METAR KPHN 100716Z AUTO 28005KT 10SM OVC060 M04/M09 A3037 RMK AO2
Pressure 30.37 in
Visibility 10.0 miles
Clouds Overcast 6000 ft
Windchill 18 °F
Dew Point 17 °F
Humidity 72%
Rainfall 0.00 in
Snow Depth Not available.
7:50 AM 4:55 PM
Waxing Gibbous, 81% visible
METAR KPHN 100716Z AUTO 28005KT 10SM OVC060 M04/M09 A3037 RMK AO2

10-Day Weather Forecast

Almanac

Astronomy

Dec. 10, 2016 Rise Set
Actual Time
Civil Twilight
Nautical Twilight
Astronomical Twilight
Moon
Length of Visible Light
Length of Day
Tomorrow will be .
, % of the Moon is Illuminated

Today's Extremes

State Highs State Lows

Community

WunderPhotos

Upload Photos

1,956,527 photos uploaded!

WunderBlog® & News

Nearby

Air Quality

  Air Quality AQ Index Pollutant
Not available.

Snow Depth

Station Depth Elevation

Earthquake Activity

City Distance Mag. Time & Date
Minimum magnitude displayed is 2.5.

Coastal Water Temperatures

Place Temperature

Stations

Nearby Weather Stations

Station Location Temp. Windchill Dew Point Humidity Wind Precip. Elev Updated Type
                   

Watches & Warnings

There are currently no watches in effect.